Dixon, South Dakota
Current Conditions -  °F | °C
As of 5:53 PM on Friday 28 Nov 2014 (Local Time) from KICR Reporting Station
Clear Clear  
Wind Chill: 42°   Ceiling: Unl
Heat Index: 46°   Visibility: 10mi
Dew Point: 30°   Wind: 8mph
Humidity: 54%   Direction: 140°SE
Pressure: 29.6"   Gusts: NA
Location:  43.2419°N, 99.4287°W
Report Text: KICR 282353Z AUTO 14007KT 10SM CLR 08/M01 A2960 RMK AO2 SLP029 T00781011 10156 20072 55005
Loading
Personal Weather Stations






























Interactive Weather Map New forecast layout! Learn more

10-Day Weather Forecast

Advertisements
Track Severe Weather on mobile